createdAt,value
2016-12-03T00:00:38.968Z,0
2016-12-03T00:01:49.038Z,0
2016-12-03T00:02:59.376Z,0
2016-12-03T00:04:09.697Z,0
2016-12-03T00:05:20.024Z,0
2016-12-03T00:06:30.365Z,0
2016-12-03T00:07:40.377Z,0
2016-12-03T00:08:50.088Z,0
2016-12-03T00:10:00.100Z,0
2016-12-03T00:11:10.103Z,0
2016-12-03T00:12:20.442Z,0
2016-12-03T00:13:30.455Z,0
2016-12-03T00:14:40.471Z,0
2016-12-03T00:15:50.792Z,0
2016-12-03T00:17:00.490Z,0
2016-12-03T00:18:10.825Z,0
2016-12-03T00:19:20.852Z,0
2016-12-03T00:20:31.184Z,0
2016-12-03T00:21:41.211Z,0
2016-12-03T00:22:51.237Z,0
2016-12-03T00:24:00.653Z,0
2016-12-03T00:25:11.205Z,0
2016-12-03T00:26:20.911Z,0
2016-12-03T00:27:30.972Z,0
2016-12-03T00:28:40.670Z,0
2016-12-03T00:29:51.026Z,0
2016-12-03T00:31:01.078Z,0
2016-12-03T00:32:11.414Z,0
2016-12-03T00:33:21.423Z,0
2016-12-03T00:34:31.443Z,0
2016-12-03T00:35:41.144Z,0
2016-12-03T00:36:50.843Z,0
2016-12-03T00:38:00.868Z,0
2016-12-03T00:39:10.874Z,0
2016-12-03T00:40:21.218Z,0
2016-12-03T00:41:31.230Z,0
2016-12-03T00:42:40.927Z,0
2016-12-03T00:43:51.264Z,0
2016-12-03T00:45:01.588Z,0
2016-12-03T00:46:11.594Z,0
2016-12-03T00:47:21.917Z,0
2016-12-03T00:48:32.234Z,0
2016-12-03T00:49:42.560Z,0
2016-12-03T00:50:52.281Z,0
2016-12-03T00:52:01.999Z,0
2016-12-03T00:53:11.706Z,0
2016-12-03T00:54:22.043Z,0
2016-12-03T00:55:32.382Z,0
2016-12-03T00:56:42.712Z,0
2016-12-03T00:57:52.756Z,0
2016-12-03T00:59:02.773Z,0
2016-12-03T01:00:13.095Z,0
2016-12-03T01:01:23.421Z,0
2016-12-03T01:02:33.424Z,0
2016-12-03T01:03:43.744Z,0
2016-12-03T01:04:54.078Z,0
2016-12-03T01:06:04.108Z,0
2016-12-03T01:07:14.464Z,0
2016-12-03T01:08:24.792Z,0
2016-12-03T01:09:34.490Z,0
2016-12-03T01:10:44.820Z,0
2016-12-03T01:11:55.148Z,0
2016-12-03T01:13:05.489Z,0
2016-12-03T01:14:15.817Z,0
2016-12-03T01:15:25.837Z,0
2016-12-03T01:16:35.578Z,0
2016-12-03T01:17:45.589Z,0
2016-12-03T01:18:55.293Z,0
2016-12-03T01:20:05.644Z,0
2016-12-03T01:21:15.651Z,0
2016-12-03T01:22:26.009Z,0
2016-12-03T01:23:36.345Z,0
2016-12-03T01:24:46.676Z,0
2016-12-03T01:25:57.002Z,0
2016-12-03T01:27:07.321Z,0
2016-12-03T01:28:17.351Z,0
2016-12-03T01:29:27.702Z,0
2016-12-03T01:30:37.718Z,0
2016-12-03T01:31:47.734Z,0
2016-12-03T01:32:57.752Z,0
2016-12-03T01:34:08.064Z,0
2016-12-03T01:35:18.073Z,0
2016-12-03T01:36:28.431Z,0
2016-12-03T01:37:38.784Z,0
2016-12-03T01:38:48.783Z,0
2016-12-03T01:39:58.827Z,0
2016-12-03T01:41:09.153Z,0
2016-12-03T01:42:19.472Z,0
2016-12-03T01:43:29.496Z,0
2016-12-03T01:44:39.512Z,0
2016-12-03T01:45:49.835Z,0
2016-12-03T01:46:59.882Z,0
2016-12-03T01:48:10.198Z,0
2016-12-03T01:49:20.520Z,0
2016-12-03T01:50:30.213Z,0
2016-12-03T01:51:40.531Z,0
2016-12-03T01:52:50.861Z,0
2016-12-03T01:54:01.192Z,0
2016-12-03T01:55:11.559Z,0
2016-12-03T01:56:21.560Z,0
2016-12-03T01:57:31.882Z,0
2016-12-03T01:58:41.900Z,0
2016-12-03T01:59:52.235Z,0
2016-12-03T02:01:02.581Z,0
2016-12-03T02:02:12.609Z,0
2016-12-03T02:03:22.927Z,0
2016-12-03T02:04:32.943Z,0
2016-12-03T02:05:43.255Z,0
2016-12-03T02:06:53.576Z,0
2016-12-03T02:08:03.912Z,0
2016-12-03T02:09:13.314Z,0
2016-12-03T02:10:23.380Z,0
2016-12-03T02:11:33.699Z,0
2016-12-03T02:12:43.723Z,0
2016-12-03T02:13:53.421Z,0
2016-12-03T02:15:03.437Z,0
2016-12-03T02:16:13.145Z,0
2016-12-03T02:17:23.461Z,0
2016-12-03T02:18:33.473Z,0
2016-12-03T02:19:43.489Z,0
2016-12-03T02:20:53.500Z,0
2016-12-03T02:22:03.204Z,0
2016-12-03T02:23:13.524Z,0
2016-12-03T02:24:23.845Z,0
2016-12-03T02:25:33.862Z,0
2016-12-03T02:26:43.560Z,0
2016-12-03T02:27:53.881Z,0
2016-12-03T02:29:03.883Z,0
2016-12-03T02:30:14.222Z,0
2016-12-03T02:31:24.236Z,0
2016-12-03T02:32:34.263Z,0
2016-12-03T02:33:44.589Z,0
2016-12-03T02:34:54.605Z,0
2016-12-03T02:36:04.613Z,0
2016-12-03T02:37:14.624Z,0
2016-12-03T02:38:24.648Z,0
2016-12-03T02:39:34.663Z,0
2016-12-03T02:40:44.684Z,0
2016-12-03T02:41:54.701Z,0
2016-12-03T02:43:04.714Z,0
2016-12-03T02:44:15.030Z,0
2016-12-03T02:45:24.736Z,0
2016-12-03T02:46:35.058Z,0
2016-12-03T02:47:45.094Z,0
2016-12-03T02:48:55.422Z,0
2016-12-03T02:50:05.734Z,0
2016-12-03T02:51:16.066Z,0
2016-12-03T02:52:25.787Z,0
2016-12-03T02:53:35.523Z,0
2016-12-03T02:54:45.841Z,0
2016-12-03T02:55:56.148Z,0
2016-12-03T02:57:05.843Z,0
2016-12-03T02:58:16.151Z,0
2016-12-03T02:59:26.183Z,0
2016-12-03T03:00:36.504Z,0
2016-12-03T03:01:46.519Z,0
2016-12-03T03:33:02.585Z,0
2016-12-03T03:34:12.891Z,0
2016-12-03T03:35:22.893Z,0
2016-12-03T03:36:32.589Z,0
2016-12-03T03:37:42.893Z,0
2016-12-03T03:38:53.217Z,0
2016-12-03T03:40:03.529Z,0
2016-12-03T03:41:13.837Z,0
2016-12-03T03:42:24.157Z,0
2016-12-03T03:43:34.217Z,0
2016-12-03T03:44:44.558Z,0
2016-12-03T03:45:54.868Z,0
2016-12-03T03:47:04.562Z,0
2016-12-03T03:48:14.896Z,0
2016-12-03T03:49:24.913Z,0
2016-12-03T03:50:34.958Z,0
2016-12-03T03:51:45.287Z,0
2016-12-03T03:52:55.333Z,0
2016-12-03T03:54:05.660Z,0
2016-12-03T03:55:16.017Z,0
2016-12-03T03:56:26.022Z,0
2016-12-03T03:57:35.723Z,0
2016-12-03T03:58:46.051Z,0
2016-12-03T03:59:56.378Z,0
2016-12-03T04:01:05.783Z,0
2016-12-03T04:02:16.115Z,0
2016-12-03T04:03:26.441Z,0
2016-12-03T04:04:36.757Z,0
2016-12-03T04:05:47.089Z,0
2016-12-03T04:06:57.158Z,0
2016-12-03T04:08:07.492Z,0
2016-12-03T04:09:17.504Z,0
2016-12-03T04:10:27.843Z,0
2016-12-03T04:11:38.178Z,0
2016-12-03T04:12:48.499Z,0
2016-12-03T04:13:58.531Z,0
2016-12-03T04:15:08.862Z,0
2016-12-03T04:16:19.198Z,0
2016-12-03T04:17:29.524Z,0
2016-12-03T04:18:39.532Z,0
2016-12-03T04:19:49.857Z,0
2016-12-03T04:20:59.875Z,0
2016-12-03T04:22:09.895Z,0
2016-12-03T04:23:19.912Z,0
2016-12-03T04:24:30.270Z,0
2016-12-03T04:25:40.285Z,0
2016-12-03T04:26:50.613Z,0
2016-12-03T04:28:00.945Z,0
2016-12-03T04:29:11.275Z,0
2016-12-03T04:30:21.283Z,0
2016-12-03T04:31:30.975Z,0
2016-12-03T04:32:40.981Z,0
2016-12-03T04:33:51.327Z,0
2016-12-03T04:35:01.648Z,0
2016-12-03T04:36:11.665Z,0
2016-12-03T04:37:21.686Z,0
2016-12-03T04:38:31.377Z,0
2016-12-03T04:39:41.695Z,0
2016-12-03T04:40:51.728Z,0
2016-12-03T04:42:02.060Z,0
2016-12-03T04:43:12.387Z,0
2016-12-03T04:44:22.398Z,0
2016-12-03T04:45:32.717Z,0
2016-12-03T04:46:43.060Z,0
2016-12-03T04:47:53.380Z,0
2016-12-03T04:49:03.074Z,0
2016-12-03T04:50:13.102Z,0
2016-12-03T04:51:23.108Z,0
2016-12-03T04:52:32.800Z,0
2016-12-03T04:53:43.131Z,0
2016-12-03T04:54:52.829Z,0
2016-12-03T04:56:03.145Z,0
2016-12-03T04:57:13.167Z,0
2016-12-03T04:58:23.492Z,0
2016-12-03T04:59:33.531Z,0
2016-12-03T05:00:43.547Z,0
2016-12-03T05:01:53.586Z,0
2016-12-03T05:03:03.613Z,0
2016-12-03T05:04:13.953Z,0
2016-12-03T05:05:24.269Z,0
2016-12-03T05:06:34.280Z,0
2016-12-03T05:07:44.288Z,0
2016-12-03T05:08:54.305Z,0
2016-12-03T05:10:04.655Z,0
2016-12-03T05:11:14.693Z,0
2016-12-03T05:12:24.698Z,0
2016-12-03T05:13:34.710Z,0
2016-12-03T05:14:44.723Z,0
2016-12-03T05:15:54.743Z,0
2016-12-03T05:17:05.057Z,0
2016-12-03T05:18:14.758Z,0
2016-12-03T05:19:24.788Z,0
2016-12-03T05:20:34.804Z,0
2016-12-03T05:21:45.116Z,0
2016-12-03T05:22:55.135Z,0
2016-12-03T05:24:05.156Z,0
2016-12-03T05:25:14.852Z,0
2016-12-03T05:26:25.164Z,0
2016-12-03T05:27:35.180Z,0
2016-12-03T05:28:45.502Z,0
2016-12-03T05:29:55.833Z,0
2016-12-03T05:31:06.186Z,0
2016-12-03T05:32:16.513Z,0
2016-12-03T05:33:26.838Z,0
2016-12-03T05:34:36.845Z,0
2016-12-03T05:35:46.878Z,0
2016-12-03T05:36:57.206Z,0
2016-12-03T05:38:07.221Z,0
2016-12-03T05:39:17.263Z,0
2016-12-03T05:40:27.591Z,0
2016-12-03T05:41:37.301Z,0
2016-12-03T05:42:47.624Z,0
2016-12-03T05:43:57.946Z,0
2016-12-03T05:45:08.276Z,0
2016-12-03T05:46:17.990Z,0
2016-12-03T05:47:28.315Z,0
2016-12-03T05:48:38.637Z,0
2016-12-03T05:49:48.662Z,0
2016-12-03T05:50:59.018Z,4
2016-12-03T05:52:09.346Z,4
2016-12-03T05:53:19.680Z,0
2016-12-03T05:54:29.980Z,0
2016-12-03T05:55:40.306Z,4
2016-12-03T05:56:50.640Z,4
2016-12-03T05:58:00.374Z,4
2016-12-03T05:59:10.106Z,0
2016-12-03T06:00:20.430Z,4
2016-12-03T06:01:30.125Z,4
2016-12-03T06:02:40.453Z,8
2016-12-03T06:03:50.780Z,8
2016-12-03T06:05:00.490Z,12
2016-12-03T06:06:10.505Z,12
2016-12-03T06:07:20.197Z,16
2016-12-03T06:08:30.545Z,20
2016-12-03T06:09:40.777Z,20
2016-12-03T06:10:50.793Z,24
2016-12-03T06:12:00.801Z,32
2016-12-03T06:13:11.126Z,36
2016-12-03T06:14:21.148Z,40
2016-12-03T06:15:31.162Z,48
2016-12-03T06:16:41.176Z,56
2016-12-03T06:17:51.523Z,68
2016-12-03T06:19:01.845Z,80
2016-12-03T06:20:12.183Z,88
2016-12-03T06:21:22.210Z,100
2016-12-03T06:22:32.245Z,112
2016-12-03T06:23:42.567Z,128
2016-12-03T06:24:52.897Z,144
2016-12-03T06:26:03.219Z,164
2016-12-03T06:27:13.544Z,180
2016-12-03T06:28:23.569Z,200
2016-12-03T06:29:33.580Z,224
2016-12-03T06:30:43.637Z,244
2016-12-03T06:31:53.345Z,268
2016-12-03T06:33:03.672Z,292
2016-12-03T06:34:13.688Z,316
2016-12-03T06:35:23.704Z,336
2016-12-03T06:36:34.015Z,368
2016-12-03T06:37:44.052Z,392
2016-12-03T06:38:53.769Z,420
2016-12-03T06:40:03.496Z,452
2016-12-03T06:41:13.839Z,484
2016-12-03T06:42:24.171Z,520
2016-12-03T06:43:34.176Z,560
2016-12-03T06:44:44.489Z,600
2016-12-03T06:45:54.527Z,640
2016-12-03T06:47:04.859Z,680
2016-12-03T06:48:15.179Z,716
2016-12-03T06:49:25.506Z,728
2016-12-03T06:50:35.509Z,764
2016-12-03T06:51:45.540Z,804
2016-12-03T06:52:55.563Z,836
2016-12-03T06:54:05.882Z,920
2016-12-03T06:55:15.254Z,928
2016-12-03T06:56:25.592Z,892
2016-12-03T06:57:35.598Z,996
2016-12-03T06:58:45.625Z,1028
2016-12-03T06:59:55.027Z,1124
2016-12-03T07:01:04.410Z,1168
2016-12-03T07:02:14.415Z,1272
2016-12-03T07:03:24.748Z,1352
2016-12-03T07:04:34.764Z,1396
2016-12-03T07:05:44.766Z,1440
2016-12-03T07:06:55.092Z,1480
2016-12-03T07:08:05.104Z,1524
2016-12-03T07:09:15.131Z,1580
2016-12-03T07:10:25.140Z,1648
2016-12-03T07:11:35.151Z,1696
2016-12-03T07:12:44.552Z,1748
2016-12-03T07:13:54.895Z,1800
2016-12-03T07:15:04.957Z,1852
2016-12-03T07:16:15.292Z,1900
2016-12-03T07:17:25.614Z,1956
2016-12-03T07:18:35.645Z,2012
2016-12-03T07:19:45.971Z,2064
2016-12-03T07:20:56.318Z,2116
2016-12-03T07:22:06.655Z,2160
2016-12-03T07:23:16.979Z,2204
2016-12-03T07:24:26.986Z,2248
2016-12-03T07:25:37.308Z,2292
2016-12-03T07:26:47.635Z,2344
2016-12-03T07:27:57.652Z,2408
2016-12-03T07:29:07.982Z,2496
2016-12-03T07:30:18.323Z,2564
2016-12-03T07:31:28.346Z,2608
2016-12-03T07:32:38.681Z,2656
2016-12-03T07:33:48.998Z,2712
2016-12-03T07:34:59.340Z,2748
2016-12-03T07:36:09.052Z,2800
2016-12-03T07:37:19.066Z,2868
2016-12-03T07:38:29.393Z,2920
2016-12-03T07:39:39.738Z,2960
2016-12-03T07:40:49.755Z,2992
2016-12-03T07:42:00.087Z,3024
2016-12-03T07:43:10.100Z,3052
2016-12-03T07:44:20.437Z,3092
2016-12-03T07:45:30.474Z,3124
2016-12-03T07:46:40.502Z,3176
2016-12-03T07:47:50.828Z,3164
2016-12-03T07:49:01.156Z,3156
2016-12-03T07:50:10.869Z,3160
2016-12-03T07:51:21.208Z,3076
2016-12-03T07:52:31.227Z,3196
2016-12-03T07:53:41.245Z,3068
2016-12-03T07:54:51.567Z,3260
2016-12-03T07:56:01.903Z,3436
2016-12-03T07:57:12.231Z,3620
2016-12-03T07:58:22.563Z,3788
2016-12-03T07:59:32.894Z,3992
2016-12-03T08:00:43.231Z,4120
2016-12-03T08:01:53.234Z,4052
2016-12-03T08:03:03.560Z,4232
2016-12-03T08:04:13.572Z,3472
2016-12-03T08:05:23.897Z,2908
2016-12-03T08:06:34.225Z,3028
2016-12-03T08:07:43.915Z,3064
2016-12-03T08:08:53.962Z,3148
2016-12-03T08:10:04.299Z,3672
2016-12-03T08:11:14.626Z,3148
2016-12-03T08:12:24.653Z,3432
2016-12-03T08:13:34.791Z,2984
2016-12-03T08:14:45.493Z,4236
2016-12-03T08:15:56.120Z,4492
2016-12-03T08:17:06.166Z,4784
2016-12-03T08:18:16.265Z,4880
2016-12-03T08:19:26.693Z,4984
2016-12-03T08:20:36.827Z,5056
2016-12-03T08:21:47.224Z,5152
2016-12-03T08:22:57.377Z,5332
2016-12-03T08:24:07.794Z,5420
2016-12-03T08:25:17.518Z,5536
2016-12-03T08:26:27.238Z,5624
2016-12-03T08:27:37.262Z,4324
2016-12-03T08:28:46.987Z,5028
2016-12-03T08:29:57.004Z,4784
2016-12-03T08:31:07.335Z,5616
2016-12-03T08:32:17.087Z,5220
2016-12-03T08:33:27.521Z,5136
2016-12-03T08:34:37.986Z,3580
2016-12-03T08:35:47.784Z,3688
2016-12-03T08:36:57.891Z,3680
2016-12-03T08:38:07.948Z,3772
2016-12-03T08:39:18.428Z,3492
2016-12-03T08:40:28.798Z,3460
2016-12-03T08:41:38.907Z,3388
2016-12-03T08:42:48.709Z,3396
2016-12-03T08:43:58.590Z,3380
2016-12-03T08:45:08.952Z,3384
2016-12-03T08:46:18.831Z,3412
2016-12-03T08:47:28.746Z,3408
2016-12-03T08:48:39.120Z,3392
2016-12-03T08:49:49.278Z,3332
2016-12-03T08:50:59.330Z,3244
2016-12-03T08:52:09.406Z,3212
2016-12-03T08:53:19.430Z,3152
2016-12-03T08:54:29.790Z,3064
2016-12-03T08:55:40.151Z,3016
2016-12-03T08:56:50.506Z,3020
2016-12-03T08:58:00.614Z,3008
2016-12-03T08:59:10.624Z,2968
2016-12-03T09:00:20.943Z,2964
2016-12-03T09:01:31.260Z,2964
2016-12-03T09:02:41.587Z,2928
2016-12-03T09:03:51.923Z,2900
2016-12-03T09:05:01.968Z,2884
2016-12-03T09:06:12.321Z,2912
2016-12-03T09:07:22.328Z,2936
2016-12-03T09:08:32.365Z,2888
2016-12-03T09:09:42.066Z,2872
2016-12-03T09:10:52.431Z,2828
2016-12-03T09:12:02.760Z,2816
2016-12-03T09:13:12.771Z,2804
2016-12-03T09:14:23.105Z,2812
2016-12-03T09:15:33.442Z,2772
2016-12-03T09:16:43.776Z,2772
2016-12-03T09:17:53.784Z,2764
2016-12-03T09:19:03.820Z,2732
2016-12-03T09:20:13.847Z,2692
2016-12-03T09:21:23.558Z,2644
2016-12-03T09:22:33.887Z,2628
2016-12-03T09:23:43.942Z,2640
2016-12-03T09:24:53.659Z,2640
2016-12-03T09:26:03.375Z,2648
2016-12-03T09:27:13.378Z,2700
2016-12-03T09:28:23.714Z,2768
2016-12-03T09:29:33.732Z,2836
2016-12-03T09:30:44.073Z,2912
2016-12-03T09:31:54.120Z,2996
2016-12-03T09:33:04.490Z,3064
2016-12-03T09:34:14.506Z,3192
2016-12-03T09:35:24.835Z,3460
2016-12-03T09:36:35.222Z,3892
2016-12-03T09:37:45.254Z,3800
2016-12-03T09:38:55.597Z,3932
2016-12-03T09:40:05.931Z,4252
2016-12-03T09:41:15.654Z,6940
2016-12-03T09:42:25.987Z,4284
2016-12-03T09:43:35.993Z,4148
2016-12-03T09:44:46.342Z,3984
2016-12-03T09:45:56.360Z,3836
2016-12-03T09:47:06.695Z,3756
2016-12-03T09:48:16.402Z,3940
2016-12-03T09:49:26.441Z,4064
2016-12-03T09:50:36.793Z,4284
2016-12-03T09:51:47.122Z,4180
2016-12-03T09:52:57.145Z,4116
2016-12-03T09:54:07.495Z,4216
2016-12-03T09:55:17.825Z,5448
2016-12-03T09:56:27.838Z,7904
2016-12-03T09:57:37.874Z,4468
2016-12-03T09:58:48.208Z,4504
2016-12-03T09:59:58.524Z,4968
2016-12-03T10:01:08.540Z,4544
2016-12-03T10:02:18.897Z,4472
2016-12-03T10:03:28.914Z,4520
2016-12-03T10:04:38.962Z,4656
2016-12-03T10:05:48.674Z,4512
2016-12-03T10:06:58.683Z,4428
2016-12-03T10:08:08.414Z,4484
2016-12-03T10:09:18.418Z,4580
2016-12-03T10:10:28.748Z,4600
2016-12-03T10:11:38.764Z,6140
2016-12-03T10:12:49.085Z,4340
2016-12-03T10:13:59.449Z,3708
2016-12-03T10:15:09.485Z,3828
2016-12-03T10:16:19.512Z,4240
2016-12-03T10:17:29.552Z,6556
2016-12-03T10:18:39.885Z,6580
2016-12-03T10:19:50.231Z,6876
2016-12-03T10:20:59.948Z,6760
2016-12-03T10:22:10.270Z,6592
2016-12-03T10:23:20.609Z,6604
2016-12-03T10:24:30.952Z,6580
2016-12-03T10:25:41.308Z,6568
2016-12-03T10:26:51.636Z,6564
2016-12-03T10:28:01.977Z,6560
2016-12-03T10:29:12.011Z,6556
2016-12-03T10:30:22.331Z,6568
2016-12-03T10:31:32.360Z,6588
2016-12-03T10:32:42.688Z,6604
2016-12-03T10:33:52.720Z,6636
2016-12-03T10:35:03.062Z,6616
2016-12-03T10:36:13.391Z,6644
2016-12-03T10:37:23.105Z,6732
2016-12-03T10:38:33.431Z,6776
2016-12-03T10:39:43.771Z,6772
2016-12-03T10:40:53.770Z,6760
2016-12-03T10:42:04.100Z,6776
2016-12-03T10:43:14.453Z,6800
2016-12-03T10:44:24.808Z,6820
2016-12-03T10:45:35.135Z,6788
2016-12-03T10:46:45.462Z,6768
2016-12-03T10:47:55.497Z,6800
2016-12-03T10:49:05.496Z,6876
2016-12-03T10:50:15.826Z,6904
2016-12-03T10:51:25.842Z,6948
2016-12-03T10:52:35.854Z,6964
2016-12-03T10:53:45.892Z,6964
2016-12-03T10:54:55.915Z,6984
2016-12-03T10:56:05.934Z,6968
2016-12-03T10:57:16.271Z,7032
2016-12-03T10:58:26.602Z,7068
2016-12-03T10:59:36.623Z,7080
2016-12-03T11:00:46.015Z,7096
2016-12-03T11:01:56.044Z,7140
2016-12-03T11:03:06.368Z,7148
2016-12-03T11:04:16.749Z,7172
2016-12-03T11:05:27.078Z,7212
2016-12-03T11:06:37.134Z,7232
2016-12-03T11:07:47.168Z,7260
2016-12-03T11:08:57.501Z,7268
2016-12-03T11:10:07.524Z,7296
2016-12-03T11:11:17.248Z,7320
2016-12-03T11:12:27.590Z,7348
2016-12-03T11:13:37.287Z,7356
2016-12-03T11:14:47.313Z,7364
2016-12-03T11:15:57.673Z,7388
2016-12-03T11:17:07.677Z,7400
2016-12-03T11:18:18.008Z,7448
2016-12-03T11:19:28.334Z,7396
2016-12-03T11:20:38.352Z,6916
2016-12-03T11:21:48.668Z,7080
2016-12-03T11:22:57.759Z,7432
2016-12-03T11:24:08.087Z,7252
2016-12-03T11:25:18.411Z,7384
2016-12-03T11:26:28.741Z,7484
2016-12-03T11:27:39.068Z,7496
2016-12-03T11:28:49.408Z,7500
2016-12-03T11:29:59.450Z,7408
2016-12-03T11:31:09.772Z,7344
2016-12-03T11:32:20.114Z,7176
2016-12-03T11:33:30.137Z,7284
2016-12-03T11:34:39.844Z,7372
2016-12-03T11:35:49.858Z,7264
2016-12-03T11:37:00.191Z,7248
2016-12-03T11:38:09.898Z,7192
2016-12-03T11:39:19.909Z,7172
2016-12-03T11:40:30.246Z,7284
2016-12-03T11:41:40.272Z,7492
2016-12-03T11:42:50.307Z,7272
2016-12-03T11:44:00.680Z,7220
2016-12-03T11:45:10.725Z,7108
2016-12-03T11:46:20.735Z,7108
2016-12-03T11:47:30.737Z,7236
2016-12-03T11:48:40.129Z,7360
2016-12-03T11:49:50.461Z,7168
2016-12-03T11:51:00.496Z,6968
2016-12-03T11:52:10.530Z,7340
2016-12-03T11:53:20.565Z,7260
2016-12-03T11:54:30.888Z,7220
2016-12-03T11:55:40.913Z,7280
2016-12-03T11:56:50.940Z,7360
2016-12-03T11:58:00.962Z,7344
2016-12-03T11:59:10.685Z,7368
2016-12-03T12:00:21.006Z,7448
2016-12-03T12:01:30.725Z,7500
2016-12-03T12:02:40.426Z,7540
2016-12-03T12:03:50.748Z,7588
2016-12-03T12:05:00.769Z,7624
2016-12-03T12:06:10.791Z,7648
2016-12-03T12:07:20.795Z,7724
2016-12-03T12:08:31.176Z,7536
2016-12-03T12:09:41.205Z,8524
2016-12-03T12:10:51.223Z,12052
2016-12-03T12:12:01.297Z,15520
2016-12-03T12:13:11.630Z,17376
2016-12-03T12:14:21.647Z,18688
2016-12-03T12:15:31.979Z,18816
2016-12-03T12:16:41.695Z,16992
2016-12-03T12:17:51.762Z,15456
2016-12-03T12:19:01.793Z,13824
2016-12-03T12:20:11.518Z,10708
2016-12-03T12:21:21.224Z,7636
2016-12-03T12:22:31.255Z,7608
2016-12-03T12:23:41.609Z,7552
2016-12-03T12:24:51.009Z,7700
2016-12-03T12:26:01.024Z,12272
2016-12-03T12:27:11.076Z,16064
2016-12-03T12:28:20.482Z,17088
2016-12-03T12:29:30.816Z,16928
2016-12-03T12:30:40.856Z,16736
2016-12-03T12:31:50.873Z,16672
2016-12-03T12:33:01.206Z,16672
2016-12-03T12:34:10.928Z,16064
2016-12-03T12:35:21.246Z,12396
2016-12-03T12:36:31.266Z,7644
2016-12-03T12:37:41.310Z,7360
2016-12-03T12:38:51.339Z,7356
2016-12-03T12:40:01.076Z,9096
2016-12-03T12:41:11.108Z,12372
2016-12-03T12:42:21.471Z,9724
2016-12-03T12:43:31.506Z,8596
2016-12-03T12:44:41.233Z,7152
2016-12-03T12:45:51.270Z,7164
2016-12-03T12:47:01.618Z,7052
2016-12-03T12:48:11.653Z,6820
2016-12-03T12:49:22.035Z,6736
2016-12-03T12:50:32.066Z,6640
2016-12-03T12:51:42.443Z,6528
2016-12-03T12:52:52.460Z,6356
2016-12-03T12:54:02.794Z,6228
2016-12-03T12:55:12.517Z,6156
2016-12-03T12:56:22.560Z,6116
2016-12-03T12:57:32.575Z,6032
2016-12-03T12:58:42.592Z,5932
2016-12-03T12:59:52.918Z,5852
2016-12-03T13:01:02.941Z,5728
2016-12-03T13:02:12.977Z,5664
2016-12-03T13:03:22.684Z,5616
2016-12-03T13:04:32.105Z,5544
2016-12-03T13:05:42.436Z,5476
2016-12-03T13:06:52.147Z,5476
2016-12-03T13:08:02.480Z,5436
2016-12-03T13:09:12.196Z,5384
2016-12-03T13:10:22.538Z,5300
2016-12-03T13:11:32.554Z,5160
2016-12-03T13:12:42.261Z,5076
2016-12-03T13:13:52.295Z,5036
2016-12-03T13:15:02.339Z,4980
2016-12-03T13:16:12.366Z,4960
2016-12-03T13:17:22.380Z,4944
2016-12-03T13:18:32.416Z,4912
2016-12-03T13:19:42.436Z,4868
2016-12-03T13:20:52.456Z,4804
2016-12-03T13:22:02.465Z,4732
2016-12-03T13:23:12.798Z,4692
2016-12-03T13:24:22.816Z,4648
2016-12-03T13:25:32.824Z,4588
2016-12-03T13:26:42.885Z,4528
2016-12-03T13:27:52.921Z,4492
2016-12-03T13:29:03.258Z,4464
2016-12-03T13:30:13.281Z,4432
2016-12-03T13:31:23.631Z,4392
2016-12-03T13:32:33.954Z,4316
2016-12-03T13:33:43.659Z,4264
2016-12-03T13:34:54.016Z,4200
2016-12-03T13:36:04.035Z,4156
2016-12-03T13:37:14.371Z,4104
2016-12-03T13:38:24.386Z,4064
2016-12-03T13:39:34.097Z,3988
2016-12-03T13:40:44.652Z,3924
2016-12-03T13:41:54.681Z,3872
2016-12-03T13:43:04.693Z,3820
2016-12-03T13:44:15.028Z,3752
2016-12-03T13:45:25.360Z,3700
2016-12-03T13:46:35.403Z,3616
2016-12-03T13:47:45.741Z,3508
2016-12-03T13:48:55.440Z,3468
2016-12-03T13:50:05.786Z,3424
2016-12-03T13:51:15.509Z,3384
2016-12-03T13:52:25.840Z,3332
2016-12-03T13:53:36.166Z,3284
2016-12-03T13:54:46.205Z,3248
2016-12-03T13:55:56.540Z,3164
2016-12-03T13:57:06.550Z,3076
2016-12-03T13:58:16.578Z,2980
2016-12-03T13:59:26.592Z,2880
2016-12-03T14:00:36.632Z,2776
2016-12-03T14:01:46.960Z,2712
2016-12-03T14:02:57.295Z,2668
2016-12-03T14:04:07.651Z,2588
2016-12-03T14:05:17.983Z,2484
2016-12-03T14:06:28.338Z,2396
2016-12-03T14:07:37.761Z,2320
2016-12-03T14:08:47.456Z,2216
2016-12-03T14:09:57.160Z,2124
2016-12-03T14:11:07.487Z,2024
2016-12-03T14:12:17.823Z,1912
2016-12-03T14:13:28.144Z,1800
2016-12-03T14:14:38.476Z,1676
2016-12-03T14:15:48.182Z,1548
2016-12-03T14:16:57.583Z,1464
2016-12-03T14:18:07.896Z,1396
2016-12-03T14:19:18.230Z,1328
2016-12-03T14:20:27.930Z,1272
2016-12-03T14:21:38.249Z,1216
2016-12-03T14:22:48.572Z,1168
2016-12-03T14:23:58.906Z,1120
2016-12-03T14:25:09.240Z,1076
2016-12-03T14:26:19.256Z,1036
2016-12-03T14:27:28.983Z,996
2016-12-03T14:28:39.335Z,960
2016-12-03T14:29:49.657Z,928
2016-12-03T14:30:59.667Z,892
2016-12-03T14:32:09.395Z,860
2016-12-03T14:33:19.412Z,828
2016-12-03T14:34:29.731Z,796
2016-12-03T14:35:39.747Z,768
2016-12-03T14:36:49.771Z,736
2016-12-03T14:37:59.828Z,708
2016-12-03T14:39:10.188Z,676
2016-12-03T14:40:20.524Z,648
2016-12-03T14:41:30.871Z,616
2016-12-03T14:42:40.893Z,592
2016-12-03T14:43:51.229Z,564
2016-12-03T14:45:01.244Z,536
2016-12-03T14:46:11.566Z,508
2016-12-03T14:47:21.895Z,480
2016-12-03T14:48:32.212Z,452
2016-12-03T14:49:42.563Z,428
2016-12-03T14:50:52.269Z,400
2016-12-03T14:52:02.604Z,376
2016-12-03T14:53:12.938Z,348
2016-12-03T14:54:23.275Z,324
2016-12-03T14:55:32.981Z,300
2016-12-03T14:56:43.313Z,276
2016-12-03T14:57:53.627Z,252
2016-12-03T14:59:03.954Z,228
2016-12-03T15:00:14.291Z,208
2016-12-03T15:01:24.304Z,188
2016-12-03T15:02:34.329Z,172
2016-12-03T15:03:44.351Z,152
2016-12-03T15:04:54.071Z,136
2016-12-03T15:06:04.403Z,120
2016-12-03T15:07:14.420Z,108
2016-12-03T15:08:24.738Z,92
2016-12-03T15:09:35.065Z,84
2016-12-03T15:10:45.407Z,68
2016-12-03T15:11:55.748Z,60
2016-12-03T15:13:05.762Z,52
2016-12-03T15:14:15.486Z,40
2016-12-03T15:15:25.834Z,36
2016-12-03T15:16:36.162Z,28
2016-12-03T15:17:46.494Z,28
2016-12-03T15:18:56.505Z,20
2016-12-03T15:20:06.852Z,16
2016-12-03T15:21:17.226Z,12
2016-12-03T15:22:27.236Z,12
2016-12-03T15:23:37.554Z,12
2016-12-03T15:24:47.894Z,8
2016-12-03T15:25:57.615Z,8
2016-12-03T15:27:07.353Z,8
2016-12-03T15:28:17.060Z,4
2016-12-03T15:29:27.389Z,4
2016-12-03T15:30:37.428Z,0
2016-12-03T15:31:47.446Z,4
2016-12-03T15:32:57.485Z,0
2016-12-03T15:34:07.518Z,0
2016-12-03T15:35:17.862Z,4
2016-12-03T15:36:28.263Z,4
2016-12-03T15:37:38.575Z,4
2016-12-03T15:38:48.286Z,0
2016-12-03T15:39:58.612Z,0
2016-12-03T15:41:08.631Z,0
2016-12-03T15:42:18.657Z,0
2016-12-03T15:43:28.685Z,0
2016-12-03T15:44:39.020Z,0
2016-12-03T15:45:49.353Z,0
2016-12-03T15:46:59.672Z,0
2016-12-03T15:48:09.697Z,0
2016-12-03T15:49:20.039Z,0
2016-12-03T15:50:30.391Z,0
2016-12-03T15:51:40.416Z,0
2016-12-03T15:52:50.439Z,0
2016-12-03T15:54:00.457Z,0
2016-12-03T15:55:10.473Z,0
2016-12-03T15:56:20.817Z,0
2016-12-03T15:57:31.166Z,0
2016-12-03T15:58:41.188Z,0
2016-12-03T15:59:51.210Z,0
2016-12-03T16:01:01.226Z,0
2016-12-03T16:02:11.259Z,0
2016-12-03T16:03:21.606Z,0
2016-12-03T16:04:31.938Z,0
2016-12-03T16:05:42.298Z,0
2016-12-03T16:06:52.327Z,0
2016-12-03T16:08:02.365Z,0
2016-12-03T16:09:12.400Z,0
2016-12-03T16:10:22.744Z,0
2016-12-03T16:11:33.084Z,4
2016-12-03T16:12:43.397Z,0
2016-12-03T16:13:53.741Z,0
2016-12-03T16:15:03.470Z,0
2016-12-03T16:16:13.491Z,0
2016-12-03T16:17:23.822Z,0
2016-12-03T16:18:34.155Z,0
2016-12-03T16:19:43.842Z,0
2016-12-03T16:20:53.889Z,0
2016-12-03T16:22:03.587Z,0
2016-12-03T16:23:13.994Z,0
2016-12-03T16:24:24.324Z,0
2016-12-03T16:25:34.026Z,0
2016-12-03T16:26:43.740Z,0
2016-12-03T16:27:53.811Z,0
2016-12-03T16:29:03.823Z,0
2016-12-03T16:30:14.151Z,0
2016-12-03T16:31:23.885Z,0
2016-12-03T16:32:34.225Z,0
2016-12-03T16:33:44.259Z,0
2016-12-03T16:34:54.281Z,0
2016-12-03T16:36:04.288Z,0
2016-12-03T16:37:14.314Z,0
2016-12-03T16:38:24.318Z,0
2016-12-03T16:39:34.345Z,0
2016-12-03T16:40:44.692Z,0
2016-12-03T16:41:54.722Z,0
2016-12-03T16:43:04.750Z,0
2016-12-03T16:44:14.775Z,0
2016-12-03T16:45:25.097Z,0
2016-12-03T16:46:35.440Z,0
2016-12-03T16:47:44.840Z,0
2016-12-03T16:48:54.858Z,0